Weather at Preston Field - Blair Howe

Public forecast

Using degrees Celsius for public forecast. Weather courtesy of forecast.io.

Closest aviation weather report (METAR) to Preston Field - Blair Howe

Closest report is Perth Jandakot Airport, 56.1 nm (103.8 km) N. Retrieved 2021/01/28 07:30 UTC (18 minutes ago):

YPJT 280730Z AUTO 18010KT 9999 // NCD 32/11 Q1011 RF000/0000

Closest aviation forecast (TAF) to Preston Field - Blair Howe

Forecast is more than 6 hours old.

Closest forecast is Busselton Regional Airport, 42.9 nm (79.5 km) SSW. Retrieved 2021-01-28 00:00 UTC (8 hours ago):

TAF YBLN 272308Z 2800/2900 14011KT 9999 SCT030 FM280600 17020KT CAVOK FM281200 15013KT 9999 FEW020